Time;durP1;ratioP1;P1;durP2;ratioP2;P2;SDS_P1;SDS_P2;PMS_P1;PMS_P2;Temp;Humidity;BMP_temperature;BMP_pressure;BME280_temperature;BME280_humidity;BME280_pressure;Samples;Min_cycle;Max_cycle;Signal;HPM_P1;HPM_P2
2023/06/26 00:01:29;;;;;;;9.57;4.22;;;24.80;85.10;;;;;;5094839;28;20043;-67
2023/06/26 00:04:35;;;;;;;9.65;4.57;;;24.60;85.50;;;;;;5094862;28;20048;-67
2023/06/26 00:07:39;;;;;;;13.45;4.82;;;24.70;85.30;;;;;;5094969;28;20047;-68
2023/06/26 00:10:43;;;;;;;10.95;5.03;;;24.70;85.20;;;;;;5094660;28;20055;-67
2023/06/26 00:13:48;;;;;;;9.60;4.25;;;24.70;85.10;;;;;;5094592;28;20043;-68
2023/06/26 00:16:52;;;;;;;10.32;4.00;;;24.70;85.80;;;;;;5094537;28;20043;-68
2023/06/26 00:19:56;;;;;;;9.15;4.65;;;24.60;85.30;;;;;;5094770;28;20043;-68
2023/06/26 00:23:01;;;;;;;8.90;4.40;;;24.60;85.20;;;;;;5094620;28;20032;-68
2023/06/26 00:26:05;;;;;;;8.27;4.50;;;24.50;85.60;;;;;;5094152;28;20529;-68
2023/06/26 00:29:11;;;;;;;8.40;4.28;;;24.40;86.20;;;;;;5094589;28;20047;-68
2023/06/26 00:32:15;;;;;;;12.90;4.72;;;24.20;86.70;;;;;;5094213;28;20506;-68
2023/06/26 00:35:19;;;;;;;10.15;4.30;;;24.20;87.30;;;;;;5093287;28;20043;-68
2023/06/26 00:38:23;;;;;;;6.00;4.28;;;24.30;87.00;;;;;;5093347;28;20055;-68
2023/06/26 00:41:27;;;;;;;8.63;4.40;;;24.40;86.90;;;;;;5094347;28;20337;-68
2023/06/26 00:44:31;;;;;;;7.10;3.90;;;24.50;86.60;;;;;;5093275;28;20040;-68
2023/06/26 00:47:36;;;;;;;13.93;4.50;;;24.50;86.90;;;;;;5094000;28;20039;-68
2023/06/26 00:50:42;;;;;;;10.40;4.65;;;24.40;87.00;;;;;;5093199;28;20046;-68
2023/06/26 00:53:46;;;;;;;8.18;4.07;;;24.40;86.90;;;;;;5094088;28;20055;-68
2023/06/26 00:56:50;;;;;;;7.28;3.92;;;24.50;87.00;;;;;;5093034;28;20055;-68
2023/06/26 00:59:54;;;;;;;8.52;4.30;;;24.60;86.40;;;;;;5093193;28;20044;-68
2023/06/26 01:02:59;;;;;;;9.18;3.90;;;24.50;86.50;;;;;;5092845;28;20051;-68
2023/06/26 01:06:04;;;;;;;9.45;4.63;;;24.50;86.60;;;;;;5081312;28;20058;-68
2023/06/26 01:09:09;;;;;;;7.85;4.22;;;24.40;86.70;;;;;;5093498;28;20044;-68
2023/06/26 01:12:14;;;;;;;13.32;4.68;;;24.50;86.20;;;;;;5093437;28;20044;-68
2023/06/26 01:15:18;;;;;;;10.63;4.57;;;24.40;86.50;;;;;;5092613;28;20388;-68
2023/06/26 01:18:22;;;;;;;6.50;4.47;;;24.30;86.90;;;;;;5093669;28;20043;-68
2023/06/26 01:21:32;;;;;;;7.90;3.97;;;24.30;86.90;;;;;;5092607;28;20383;-68
2023/06/26 01:24:38;;;;;;;11.25;4.68;;;24.40;86.60;;;;;;5093617;28;20624;-68
2023/06/26 01:27:43;;;;;;;11.15;4.75;;;24.50;86.40;;;;;;5092623;28;20039;-68
2023/06/26 01:30:49;;;;;;;7.35;4.55;;;24.60;86.30;;;;;;5092323;28;20546;-68
2023/06/26 01:33:54;;;;;;;6.72;4.18;;;24.60;86.20;;;;;;5093127;28;20028;-68
2023/06/26 01:36:58;;;;;;;12.82;4.50;;;24.60;86.10;;;;;;5092718;28;20036;-67
2023/06/26 01:40:06;;;;;;;7.40;4.30;;;24.60;86.20;;;;;;5092134;28;20063;-68
2023/06/26 01:43:19;;;;;;;9.90;5.22;;;24.60;86.20;;;;;;5092781;28;20047;-68
2023/06/26 01:46:55;;;;;;;11.57;4.57;;;24.60;86.40;;;;;;5092953;28;20415;-68
2023/06/26 01:50:22;;;;;;;15.68;4.55;;;24.60;86.70;;;;;;5089433;28;20051;-68
2023/06/26 01:53:35;;;;;;;9.93;4.97;;;24.50;87.10;;;;;;5092775;28;20066;-68
2023/06/26 01:56:40;;;;;;;9.43;4.78;;;24.30;87.50;;;;;;5092786;28;20043;-68
2023/06/26 01:59:45;;;;;;;7.75;4.95;;;24.40;87.30;;;;;;5093384;28;20047;-68
2023/06/26 02:02:49;;;;;;;7.38;4.45;;;24.40;87.40;;;;;;5092833;28;20047;-68
2023/06/26 02:05:53;;;;;;;8.27;4.85;;;24.40;87.40;;;;;;5091817;28;20036;-68
2023/06/26 02:08:57;;;;;;;11.98;4.78;;;24.40;87.40;;;;;;5090934;28;20583;-68
2023/06/26 02:12:00;;;;;;;10.90;4.82;;;24.40;87.30;;;;;;5092285;28;20055;-68
2023/06/26 02:15:05;;;;;;;8.07;5.07;;;24.40;87.50;;;;;;5079584;28;20035;-68
2023/06/26 02:18:10;;;;;;;9.65;5.68;;;24.40;87.40;;;;;;5091399;28;20045;-68
2023/06/26 02:21:14;;;;;;;11.13;5.00;;;24.30;87.30;;;;;;5092505;28;20040;-68
2023/06/26 02:24:19;;;;;;;9.82;5.40;;;24.30;87.50;;;;;;5092313;28;20387;-68
2023/06/26 02:27:23;;;;;;;8.35;4.93;;;24.20;87.90;;;;;;5092232;28;20043;-68
2023/06/26 02:30:27;;;;;;;6.90;4.68;;;24.20;87.80;;;;;;5092248;28;20070;-68
2023/06/26 02:33:32;;;;;;;9.45;4.57;;;24.20;87.90;;;;;;5092185;28;20392;-68
2023/06/26 02:36:36;;;;;;;8.60;4.90;;;24.20;87.80;;;;;;5092063;28;20040;-68
2023/06/26 02:39:42;;;;;;;12.48;5.22;;;24.30;88.00;;;;;;5091197;28;20051;-67
2023/06/26 02:42:47;;;;;;;11.75;5.30;;;24.30;88.00;;;;;;5090818;28;20383;-68
2023/06/26 02:45:53;;;;;;;8.85;4.93;;;24.30;88.10;;;;;;5090703;28;20044;-67
2023/06/26 02:48:57;;;;;;;9.07;5.25;;;24.10;88.40;;;;;;5090968;28;20040;-67
2023/06/26 02:52:01;;;;;;;9.50;4.88;;;24.00;88.60;;;;;;5090614;28;20059;-67
2023/06/26 02:55:07;;;;;;;31.95;5.85;;;23.90;88.90;;;;;;5090494;28;20028;-67
2023/06/26 02:58:11;;;;;;;10.73;4.95;;;23.70;89.50;;;;;;5079200;28;20043;-67
2023/06/26 03:01:20;;;;;;;11.57;5.13;;;23.60;90.00;;;;;;5078726;28;20035;-66
2023/06/26 03:04:24;;;;;;;8.75;5.30;;;23.70;89.90;;;;;;5090836;28;20043;-68
2023/06/26 03:07:28;;;;;;;8.95;5.20;;;23.60;90.10;;;;;;5090921;28;20040;-68
2023/06/26 03:10:32;;;;;;;6.75;4.72;;;23.60;90.10;;;;;;5090753;28;20049;-69
2023/06/26 03:13:37;;;;;;;12.23;5.25;;;23.70;90.00;;;;;;5079089;28;20056;-68
2023/06/26 03:16:41;;;;;;;11.57;5.78;;;23.70;89.50;;;;;;5091184;28;20043;-69
2023/06/26 03:19:45;;;;;;;10.48;5.00;;;23.70;89.70;;;;;;5091207;28;20051;-68
2023/06/26 03:23:07;;;;;;;11.95;5.30;;;23.70;89.80;;;;;;5090538;28;20035;-66
2023/06/26 03:26:14;;;;;;;13.07;4.93;;;23.80;89.20;;;;;;5090977;28;20063;-69
2023/06/26 03:29:18;;;;;;;18.33;4.95;;;23.80;89.30;;;;;;5090958;28;20039;-70
2023/06/26 03:32:22;;;;;;;15.32;5.13;;;23.90;89.40;;;;;;5089932;28;20051;-67
2023/06/26 03:35:26;;;;;;;10.50;5.28;;;24.00;89.40;;;;;;5090574;28;20047;-67
2023/06/26 03:38:30;;;;;;;11.30;5.43;;;24.00;88.60;;;;;;5090466;28;20063;-68
2023/06/26 03:41:38;;;;;;;12.38;6.10;;;24.10;88.80;;;;;;5089963;28;20391;-67
2023/06/26 03:44:42;;;;;;;9.48;5.50;;;24.00;89.40;;;;;;5090250;28;20042;-67
2023/06/26 03:47:49;;;;;;;7.47;5.03;;;24.00;89.10;;;;;;5091141;28;20045;-67
2023/06/26 03:50:53;;;;;;;9.38;5.20;;;23.90;89.60;;;;;;5089912;28;20045;-67
2023/06/26 03:53:57;;;;;;;13.55;5.88;;;23.60;90.40;;;;;;5090215;28;20036;-67
2023/06/26 03:57:01;;;;;;;11.27;5.18;;;23.60;90.50;;;;;;5089857;28;20368;-67
2023/06/26 04:00:08;;;;;;;10.52;5.30;;;23.50;90.70;;;;;;5089800;28;20403;-67
2023/06/26 04:03:18;;;;;;;12.20;5.28;;;23.60;90.90;;;;;;5091047;28;20047;-67
2023/06/26 04:06:22;;;;;;;12.57;5.57;;;23.60;90.40;;;;;;5090661;28;20059;-67
2023/06/26 04:09:27;;;;;;;13.70;5.78;;;23.50;90.50;;;;;;5090028;28;20055;-67
2023/06/26 04:12:31;;;;;;;25.42;6.30;;;23.50;90.60;;;;;;5090643;28;20059;-66
2023/06/26 04:15:35;;;;;;;17.95;5.90;;;23.40;90.90;;;;;;5090794;28;20039;-67
2023/06/26 04:18:39;;;;;;;12.88;5.55;;;23.50;90.90;;;;;;5090550;28;20043;-67
2023/06/26 04:21:43;;;;;;;8.55;4.82;;;23.50;90.70;;;;;;5090345;28;20399;-67
2023/06/26 04:24:47;;;;;;;12.60;6.05;;;23.70;90.50;;;;;;5089498;28;20051;-67
2023/06/26 04:27:54;;;;;;;11.88;5.38;;;23.80;90.20;;;;;;5090656;28;20463;-67
2023/06/26 04:30:58;;;;;;;12.77;5.40;;;23.90;90.20;;;;;;5091838;28;20502;-67
2023/06/26 04:34:02;;;;;;;17.85;6.38;;;23.90;90.00;;;;;;5094485;28;20043;-67
2023/06/26 04:37:07;;;;;;;14.45;5.60;;;24.00;90.00;;;;;;5094032;28;20047;-66
2023/06/26 04:40:11;;;;;;;16.40;5.38;;;23.90;90.20;;;;;;5094107;28;20047;-67
2023/06/26 04:43:18;;;;;;;18.48;5.85;;;24.20;90.20;;;;;;5094344;28;20047;-68
2023/06/26 04:46:22;;;;;;;32.70;7.60;;;24.60;88.60;;;;;;5093920;28;20039;-67
2023/06/26 04:49:27;;;;;;;18.05;6.00;;;24.60;88.20;;;;;;5093962;28;20046;-68
2023/06/26 04:52:31;;;;;;;34.83;7.22;;;24.70;87.90;;;;;;5093626;28;20403;-68
2023/06/26 04:55:35;;;;;;;21.73;5.75;;;24.70;88.30;;;;;;5093674;28;20043;-68
2023/06/26 04:58:40;;;;;;;17.00;6.30;;;24.60;88.30;;;;;;5093871;28;20047;-68
2023/06/26 05:01:47;;;;;;;29.85;7.40;;;24.60;88.50;;;;;;5093617;28;20043;-67
2023/06/26 05:04:54;;;;;;;13.18;6.10;;;24.60;89.00;;;;;;5093454;28;20035;-68
2023/06/26 05:07:57;;;;;;;16.83;7.38;;;24.60;88.80;;;;;;5093437;28;20039;-68
2023/06/26 05:11:01;;;;;;;16.45;6.53;;;24.80;88.70;;;;;;5093495;28;20498;-67
2023/06/26 05:14:07;;;;;;;17.58;6.30;;;25.00;88.30;;;;;;5093653;28;20059;-65
2023/06/26 05:17:11;;;;;;;14.90;5.95;;;25.30;88.00;;;;;;5093732;28;20506;-65
2023/06/26 05:20:16;;;;;;;15.32;5.40;;;25.70;87.60;;;;;;5093348;28;20051;-65
2023/06/26 05:23:21;;;;;;;13.15;6.45;;;26.10;86.00;;;;;;5093435;28;20043;-64
2023/06/26 05:26:26;;;;;;;20.25;6.40;;;26.20;83.90;;;;;;5093358;28;20047;-65
2023/06/26 05:29:31;;;;;;;14.65;7.00;;;26.50;83.00;;;;;;5093181;28;20578;-64
2023/06/26 05:32:37;;;;;;;17.90;6.38;;;26.70;81.30;;;;;;5092336;28;20581;-64
2023/06/26 05:35:42;;;;;;;20.98;7.47;;;26.80;81.10;;;;;;5093298;28;20039;-65
2023/06/26 05:38:46;;;;;;;37.60;9.13;;;27.10;80.50;;;;;;5092872;28;20055;-64
2023/06/26 05:41:51;;;;;;;20.65;7.90;;;27.20;79.60;;;;;;5092975;28;20043;-64
2023/06/26 05:44:56;;;;;;;23.45;7.88;;;27.10;79.70;;;;;;5092723;28;20071;-65
2023/06/26 05:48:00;;;;;;;12.27;7.47;;;27.10;80.00;;;;;;5093100;28;20502;-64
2023/06/26 05:51:04;;;;;;;17.95;6.85;;;27.30;79.60;;;;;;5093343;28;20047;-65
2023/06/26 05:54:08;;;;;;;21.75;7.30;;;27.40;78.70;;;;;;5092987;28;20050;-65
2023/06/26 05:57:14;;;;;;;21.55;8.73;;;27.40;78.20;;;;;;5092677;28;20055;-65
2023/06/26 06:00:18;;;;;;;26.25;8.82;;;27.70;78.80;;;;;;5092266;28;20047;-65
2023/06/26 06:03:22;;;;;;;24.27;8.18;;;28.00;77.50;;;;;;5092511;28;20601;-65
2023/06/26 06:06:26;;;;;;;16.77;6.47;;;28.20;76.60;;;;;;5092420;28;20055;-65
2023/06/26 06:09:30;;;;;;;15.75;5.65;;;28.40;76.10;;;;;;5092711;28;20043;-65
2023/06/26 06:12:34;;;;;;;12.65;5.03;;;28.60;75.80;;;;;;5092493;28;20051;-66
2023/06/26 06:15:38;;;;;;;12.45;4.80;;;28.60;74.90;;;;;;5092666;28;20046;-66
2023/06/26 06:18:42;;;;;;;12.13;4.38;;;28.40;75.20;;;;;;5092527;28;20043;-64
2023/06/26 06:21:46;;;;;;;10.15;4.90;;;28.50;75.90;;;;;;5092398;28;20039;-64
2023/06/26 06:24:50;;;;;;;10.27;4.60;;;28.70;75.00;;;;;;5091819;28;20047;-64
2023/06/26 06:27:54;;;;;;;11.40;4.25;;;29.10;74.40;;;;;;5091036;28;20043;-64
2023/06/26 06:30:58;;;;;;;10.73;4.50;;;29.40;73.60;;;;;;5090303;28;20058;-63
2023/06/26 06:34:02;;;;;;;11.43;4.70;;;29.60;72.50;;;;;;5091016;28;20074;-65
2023/06/26 06:37:06;;;;;;;8.80;5.07;;;29.70;72.00;;;;;;5091549;28;20047;-63
2023/06/26 06:40:13;;;;;;;14.68;4.32;;;29.70;72.70;;;;;;5091021;28;20047;-63
2023/06/26 06:43:17;;;;;;;14.85;5.70;;;30.00;72.10;;;;;;5091648;28;20047;-63
2023/06/26 06:46:21;;;;;;;19.52;5.68;;;30.10;71.50;;;;;;5091341;28;20039;-62
2023/06/26 06:49:25;;;;;;;12.60;5.05;;;30.30;71.80;;;;;;5091846;28;20046;-63
2023/06/26 06:52:29;;;;;;;15.48;4.93;;;30.50;68.50;;;;;;5091687;28;20054;-63
2023/06/26 06:55:33;;;;;;;10.95;4.47;;;30.40;69.10;;;;;;5090987;28;20043;-63
2023/06/26 06:58:37;;;;;;;41.25;6.13;;;30.10;68.50;;;;;;5091436;28;20046;-64
2023/06/26 07:01:41;;;;;;;14.95;5.15;;;30.20;68.80;;;;;;5091746;28;20039;-63
2023/06/26 07:04:45;;;;;;;9.25;4.82;;;30.50;68.50;;;;;;5091219;28;20423;-63
2023/06/26 07:07:49;;;;;;;11.02;4.85;;;30.60;67.70;;;;;;5091466;28;20039;-64
2023/06/26 07:10:53;;;;;;;31.45;6.28;;;30.60;67.30;;;;;;5091372;28;20051;-63
2023/06/26 07:13:57;;;;;;;22.52;5.65;;;30.70;68.00;;;;;;5091164;28;20043;-62
2023/06/26 07:17:01;;;;;;;10.05;4.65;;;30.40;66.10;;;;;;5091341;28;20418;-63
2023/06/26 07:20:10;;;;;;;7.90;4.22;;;30.20;66.60;;;;;;5090974;28;20043;-62
2023/06/26 07:23:14;;;;;;;11.40;4.85;;;30.10;66.20;;;;;;5090940;28;20051;-62
2023/06/26 07:26:18;;;;;;;7.05;4.18;;;30.00;66.20;;;;;;5090835;28;20055;-63
2023/06/26 07:29:22;;;;;;;5.80;4.55;;;30.00;66.20;;;;;;5090345;28;20054;-62
2023/06/26 07:32:25;;;;;;;13.27;4.80;;;30.00;66.90;;;;;;5090749;28;20047;-63
2023/06/26 07:35:29;;;;;;;10.32;4.55;;;30.30;66.70;;;;;;5090709;28;20043;-63
2023/06/26 07:38:33;;;;;;;10.80;4.55;;;30.40;66.30;;;;;;5090653;28;20063;-63
2023/06/26 07:41:38;;;;;;;13.43;5.30;;;30.50;66.90;;;;;;5091140;28;20471;-62
2023/06/26 07:44:43;;;;;;;28.50;6.22;;;30.80;67.30;;;;;;5091028;28;20486;-62
2023/06/26 07:47:47;;;;;;;15.38;5.55;;;30.80;68.10;;;;;;5091136;28;20070;-62
2023/06/26 07:50:51;;;;;;;9.23;5.13;;;30.80;68.20;;;;;;5091109;28;20035;-63
2023/06/26 07:53:55;;;;;;;17.85;5.18;;;30.90;67.40;;;;;;5090797;28;20055;-62
2023/06/26 07:57:06;;;;;;;18.77;5.50;;;31.20;67.00;;;;;;5090663;28;20047;-63
2023/06/26 08:00:11;;;;;;;13.68;4.55;;;31.30;65.60;;;;;;5090962;28;20043;-63
2023/06/26 08:03:18;;;;;;;7.65;4.43;;;31.50;65.50;;;;;;5090866;28;20392;-63
2023/06/26 08:06:22;;;;;;;12.63;4.35;;;31.60;63.90;;;;;;5094549;28;20047;-62
2023/06/26 08:09:27;;;;;;;10.13;4.65;;;31.50;64.40;;;;;;5095034;28;20035;-62
2023/06/26 08:12:31;;;;;;;9.00;4.30;;;31.30;64.70;;;;;;5094719;28;20055;-63
2023/06/26 08:15:35;;;;;;;15.77;4.90;;;31.30;64.50;;;;;;5094397;28;20044;-62
2023/06/26 08:18:39;;;;;;;11.35;4.40;;;31.30;65.30;;;;;;5094603;28;20063;-62
2023/06/26 08:21:45;;;;;;;13.60;5.45;;;31.40;65.00;;;;;;5094715;28;20055;-63
2023/06/26 08:24:51;;;;;;;8.65;4.95;;;31.50;65.10;;;;;;5094463;28;20043;-63
2023/06/26 08:27:55;;;;;;;8.73;4.93;;;31.70;65.30;;;;;;5094279;28;20528;-63
2023/06/26 08:30:59;;;;;;;8.90;5.40;;;31.80;64.70;;;;;;5094061;28;20544;-63
2023/06/26 08:34:04;;;;;;;9.25;4.80;;;31.90;64.90;;;;;;5094407;28;20493;-63
2023/06/26 08:37:09;;;;;;;7.65;4.88;;;32.20;64.30;;;;;;5093747;28;20494;-63
2023/06/26 08:40:17;;;;;;;8.85;4.97;;;32.00;64.60;;;;;;5094039;28;20047;-63
2023/06/26 08:43:21;;;;;;;10.35;4.95;;;32.10;64.60;;;;;;5093559;28;20043;-63
2023/06/26 08:46:26;;;;;;;7.30;4.55;;;31.90;64.90;;;;;;5093920;28;20066;-63
2023/06/26 08:49:43;;;;;;;7.93;5.15;;;31.80;65.00;;;;;;5094138;28;20051;-63
2023/06/26 08:53:04;;;;;;;11.95;5.10;;;31.90;65.30;;;;;;5093933;28;20055;-63
2023/06/26 08:56:09;;;;;;;9.73;4.95;;;32.00;64.90;;;;;;5093937;28;20047;-63
2023/06/26 08:59:14;;;;;;;10.90;5.68;;;32.30;64.90;;;;;;5093750;28;20071;-62
2023/06/26 09:02:20;;;;;;;13.05;5.97;;;32.50;65.50;;;;;;5093330;28;20039;-62
2023/06/26 09:05:27;;;;;;;11.38;4.70;;;32.40;64.90;;;;;;5093802;28;20051;-64
2023/06/26 09:08:31;;;;;;;12.40;5.43;;;32.20;65.50;;;;;;5093927;28;20062;-65
2023/06/26 09:11:35;;;;;;;8.65;5.00;;;32.30;65.60;;;;;;5093493;28;20051;-65
2023/06/26 09:14:43;;;;;;;10.38;4.40;;;32.40;65.30;;;;;;5093493;28;20047;-66
2023/06/26 09:17:49;;;;;;;8.98;4.43;;;32.30;64.30;;;;;;5093271;28;20039;-64
2023/06/26 09:20:54;;;;;;;8.48;5.68;;;32.40;65.30;;;;;;5093343;28;20047;-66
2023/06/26 09:23:58;;;;;;;10.15;5.13;;;32.40;65.50;;;;;;5093344;28;20043;-65
2023/06/26 09:27:03;;;;;;;23.60;5.40;;;32.50;65.80;;;;;;5093278;28;20039;-64
2023/06/26 09:30:07;;;;;;;27.98;7.22;;;32.60;65.50;;;;;;5093457;28;20043;-64
2023/06/26 09:33:14;;;;;;;8.27;5.18;;;32.70;65.30;;;;;;5092990;28;20051;-64
2023/06/26 09:36:21;;;;;;;18.23;5.65;;;32.70;65.60;;;;;;5093132;28;20055;-64
2023/06/26 09:39:26;;;;;;;10.93;5.38;;;32.50;64.30;;;;;;5093278;28;20039;-64
2023/06/26 09:42:33;;;;;;;5.85;4.65;;;32.10;65.10;;;;;;5092880;28;20399;-64
2023/06/26 09:45:41;;;;;;;8.55;4.75;;;32.10;65.20;;;;;;5093070;28;20506;-64
2023/06/26 09:48:45;;;;;;;9.90;5.43;;;32.30;65.60;;;;;;5092896;28;20047;-63
2023/06/26 09:51:50;;;;;;;14.50;5.70;;;32.30;64.20;;;;;;5092775;28;20055;-66
2023/06/26 09:55:10;;;;;;;10.13;5.07;;;32.30;65.40;;;;;;5092544;28;20051;-65
2023/06/26 09:58:15;;;;;;;14.32;5.47;;;32.40;64.90;;;;;;5092604;28;20229;-67
2023/06/26 10:01:20;;;;;;;11.93;5.57;;;32.50;64.90;;;;;;5092451;28;20047;-65
2023/06/26 10:04:24;;;;;;;10.70;4.93;;;32.50;65.60;;;;;;5090610;28;20055;-65
2023/06/26 10:07:28;;;;;;;10.15;5.85;;;32.50;66.20;;;;;;5089296;28;20047;-66
2023/06/26 10:10:36;;;;;;;10.27;5.32;;;32.50;65.40;;;;;;5091061;28;20435;-64
2023/06/26 10:13:46;;;;;;;12.23;5.63;;;32.30;66.10;;;;;;5090967;28;20059;-65
2023/06/26 10:16:50;;;;;;;10.45;6.18;;;32.30;66.90;;;;;;5091562;28;20039;-65
2023/06/26 10:19:56;;;;;;;8.57;5.50;;;32.20;66.10;;;;;;5092020;28;20055;-65
2023/06/26 10:23:03;;;;;;;7.70;4.90;;;32.20;66.70;;;;;;5090313;28;20042;-65
2023/06/26 10:26:09;;;;;;;12.27;5.65;;;32.20;66.60;;;;;;5090057;28;20047;-65
2023/06/26 10:29:16;;;;;;;13.70;5.80;;;32.10;66.70;;;;;;5088224;28;20039;-64
2023/06/26 10:32:24;;;;;;;9.73;5.05;;;32.10;67.40;;;;;;5090365;28;20050;-64
2023/06/26 10:35:30;;;;;;;12.85;6.43;;;32.00;67.10;;;;;;5091557;28;20065;-64
2023/06/26 10:38:49;;;;;;;11.60;6.13;;;32.00;67.60;;;;;;5091299;28;20055;-65
2023/06/26 10:42:09;;;;;;;9.65;5.15;;;32.10;68.20;;;;;;5091952;28;20070;-65
2023/06/26 10:45:16;;;;;;;6.18;4.80;;;32.20;66.80;;;;;;5091707;28;20055;-65
2023/06/26 10:48:21;;;;;;;11.30;5.50;;;32.20;67.10;;;;;;5092002;28;20403;-64
2023/06/26 10:51:26;;;;;;;13.50;4.97;;;32.30;67.40;;;;;;5092007;28;20047;-65
2023/06/26 10:54:32;;;;;;;9.50;5.22;;;32.40;66.50;;;;;;5091494;28;20059;-65
2023/06/26 10:57:38;;;;;;;9.45;5.40;;;32.30;65.10;;;;;;5091641;28;20043;-65
2023/06/26 11:00:49;;;;;;;8.73;5.00;;;32.00;65.20;;;;;;5091710;28;20055;-65
2023/06/26 11:04:02;;;;;;;7.65;4.90;;;31.90;65.80;;;;;;5091548;28;20051;-65
2023/06/26 11:07:26;;;;;;;12.10;5.88;;;31.90;66.10;;;;;;5091418;28;20051;-65
2023/06/26 11:10:47;;;;;;;6.97;4.50;;;32.00;65.60;;;;;;5091530;28;20047;-65
2023/06/26 11:13:52;;;;;;;5.40;4.57;;;32.00;65.90;;;;;;5091181;28;20058;-66
2023/06/26 11:16:57;;;;;;;7.57;4.95;;;32.00;66.50;;;;;;5091552;28;20046;-65
2023/06/26 11:20:01;;;;;;;18.40;6.38;;;32.10;66.00;;;;;;5091046;28;20051;-65
2023/06/26 11:23:07;;;;;;;12.75;5.63;;;32.20;66.10;;;;;;5090391;28;20039;-65
2023/06/26 11:26:14;;;;;;;9.45;5.72;;;32.20;66.20;;;;;;5090854;28;20043;-65
2023/06/26 11:29:18;;;;;;;10.13;5.28;;;32.30;68.20;;;;;;5091361;28;20391;-65
2023/06/26 11:32:22;;;;;;;8.75;4.50;;;32.30;68.90;;;;;;5091130;28;20055;-65
2023/06/26 11:35:30;;;;;;;13.13;5.22;;;32.30;69.10;;;;;;5091111;28;20051;-65
2023/06/26 11:38:38;;;;;;;14.40;6.50;;;32.30;68.90;;;;;;5090906;28;20411;-65
2023/06/26 11:41:45;;;;;;;12.05;5.78;;;32.30;69.10;;;;;;5091265;28;20042;-64
2023/06/26 11:44:49;;;;;;;9.63;5.43;;;32.30;68.60;;;;;;5091107;28;20499;-65
2023/06/26 11:47:56;;;;;;;10.68;4.93;;;32.20;68.50;;;;;;5091086;28;20043;-66
2023/06/26 11:50:59;;;;;;;13.65;5.35;;;32.20;68.90;;;;;;5091043;28;20518;-65
2023/06/26 11:54:04;;;;;;;11.30;5.60;;;32.20;69.30;;;;;;5090743;28;20071;-65
2023/06/26 11:57:13;;;;;;;10.35;5.45;;;32.20;68.90;;;;;;5091084;28;20114;-65
2023/06/26 12:00:18;;;;;;;11.27;5.15;;;32.20;68.80;;;;;;5090947;28;20051;-65
2023/06/26 12:03:22;;;;;;;8.13;5.25;;;32.20;69.00;;;;;;5091062;28;20057;-64
2023/06/26 12:06:27;;;;;;;6.35;5.03;;;32.10;68.60;;;;;;5090648;28;20043;-64
2023/06/26 12:09:33;;;;;;;18.77;6.20;;;32.10;69.50;;;;;;5090779;28;20047;-64
2023/06/26 12:12:38;;;;;;;7.50;4.93;;;32.10;69.20;;;;;;5090245;28;20047;-64
2023/06/26 12:15:42;;;;;;;10.07;5.60;;;32.20;69.40;;;;;;5090311;28;20047;-63
2023/06/26 12:18:47;;;;;;;5.97;4.20;;;32.10;67.20;;;;;;5090739;28;20384;-63
2023/06/26 12:21:52;;;;;;;5.93;4.03;;;32.00;67.10;;;;;;5090585;28;20042;-64
2023/06/26 12:24:57;;;;;;;6.43;4.05;;;32.00;68.90;;;;;;5090807;28;20043;-64
2023/06/26 12:28:01;;;;;;;7.88;4.30;;;32.00;70.00;;;;;;5091046;28;20051;-64
2023/06/26 12:31:20;;;;;;;15.95;5.07;;;32.00;70.40;;;;;;5090856;28;20051;-64
2023/06/26 12:34:31;;;;;;;8.35;4.38;;;32.00;71.60;;;;;;5090725;28;20126;-64
2023/06/26 12:37:40;;;;;;;5.97;4.22;;;32.00;71.10;;;;;;5090351;28;20655;-64
2023/06/26 12:40:47;;;;;;;9.27;4.05;;;32.00;71.50;;;;;;5090521;28;20082;-64
2023/06/26 12:44:00;;;;;;;9.00;4.63;;;32.00;71.70;;;;;;5090785;28;20051;-64
2023/06/26 12:47:06;;;;;;;7.20;4.22;;;32.00;71.70;;;;;;5090840;28;20051;-64
2023/06/26 12:50:12;;;;;;;7.63;4.10;;;32.00;71.60;;;;;;5090296;28;20094;-62
2023/06/26 12:53:16;;;;;;;7.60;4.45;;;32.00;71.60;;;;;;5093402;28;20051;-62
2023/06/26 12:56:20;;;;;;;9.05;4.18;;;32.00;71.50;;;;;;5094129;28;20043;-62
2023/06/26 12:59:24;;;;;;;14.40;4.55;;;32.00;71.40;;;;;;5094058;28;20039;-62
2023/06/26 13:02:28;;;;;;;9.30;3.97;;;31.90;71.50;;;;;;5093410;28;20394;-62
2023/06/26 13:05:31;;;;;;;8.27;4.35;;;31.90;71.70;;;;;;5093604;28;20055;-62
2023/06/26 13:08:37;;;;;;;29.65;4.85;;;31.80;71.50;;;;;;5093418;28;20055;-62
2023/06/26 13:11:40;;;;;;;9.60;4.57;;;31.80;72.00;;;;;;5093795;28;20078;-62
2023/06/26 13:14:48;;;;;;;9.55;4.32;;;31.80;72.10;;;;;;5094580;28;20086;-62
2023/06/26 13:17:52;;;;;;;7.82;4.05;;;31.80;71.80;;;;;;5093371;28;20051;-64
2023/06/26 13:20:56;;;;;;;12.98;4.05;;;31.80;71.80;;;;;;5093509;28;20058;-63
2023/06/26 13:24:03;;;;;;;74.55;8.23;;;31.80;72.10;;;;;;5093353;28;20063;-63
2023/06/26 13:27:07;;;;;;;13.50;4.00;;;31.80;71.60;;;;;;5093621;28;20048;-62
2023/06/26 13:30:12;;;;;;;13.02;4.75;;;31.80;72.10;;;;;;5093346;28;20039;-62
2023/06/26 13:33:16;;;;;;;10.98;4.35;;;31.80;72.80;;;;;;5093309;28;20063;-62
2023/06/26 13:36:21;;;;;;;11.18;3.90;;;31.80;72.40;;;;;;5093290;28;20502;-62
2023/06/26 13:39:24;;;;;;;8.13;3.60;;;31.80;72.60;;;;;;5092976;28;20051;-63
2023/06/26 13:42:29;;;;;;;24.58;6.13;;;31.80;72.60;;;;;;5093069;28;20054;-63
2023/06/26 13:45:33;;;;;;;13.63;3.90;;;31.80;72.40;;;;;;5092871;28;20688;-63
2023/06/26 13:48:37;;;;;;;18.25;4.57;;;31.70;72.70;;;;;;5092869;28;20367;-64
2023/06/26 13:51:45;;;;;;;4.55;3.65;;;31.70;72.70;;;;;;5092784;28;20039;-64
2023/06/26 13:54:49;;;;;;;14.85;5.00;;;31.70;72.30;;;;;;5092431;28;20663;-63
2023/06/26 13:57:53;;;;;;;10.93;4.55;;;31.70;72.50;;;;;;5092888;28;20035;-64
2023/06/26 14:01:00;;;;;;;11.95;3.83;;;31.80;72.90;;;;;;5092617;28;20055;-64
2023/06/26 14:04:04;;;;;;;15.50;3.97;;;32.50;71.10;;;;;;5092404;28;20051;-64
2023/06/26 14:07:09;;;;;;;14.45;4.32;;;33.40;70.00;;;;;;5092374;28;20043;-63
2023/06/26 14:10:13;;;;;;;18.25;4.57;;;33.70;68.90;;;;;;5092356;28;20055;-63
2023/06/26 14:13:18;;;;;;;16.13;5.10;;;34.30;68.30;;;;;;5092230;28;20054;-63
2023/06/26 14:16:22;;;;;;;10.10;4.10;;;34.70;67.50;;;;;;5092037;28;20039;-65
2023/06/26 14:19:26;;;;;;;11.05;4.38;;;34.80;67.40;;;;;;5092079;28;20043;-62
2023/06/26 14:22:30;;;;;;;15.68;4.30;;;34.90;67.30;;;;;;5091701;28;20055;-63
2023/06/26 14:25:34;;;;;;;6.90;4.20;;;34.90;67.40;;;;;;5091866;28;20546;-63
2023/06/26 14:28:38;;;;;;;18.00;4.50;;;34.80;67.00;;;;;;5091672;28;20051;-62
2023/06/26 14:31:43;;;;;;;18.35;4.60;;;34.70;67.10;;;;;;5091871;28;20039;-63
2023/06/26 14:34:47;;;;;;;11.85;3.50;;;34.50;67.80;;;;;;5091932;28;20062;-62
2023/06/26 14:37:51;;;;;;;9.15;4.03;;;34.60;67.60;;;;;;5091847;28;20051;-61
2023/06/26 14:40:56;;;;;;;15.07;3.67;;;34.70;67.10;;;;;;5091680;28;20039;-61
2023/06/26 14:44:00;;;;;;;13.57;3.80;;;34.90;66.70;;;;;;5091704;28;20051;-61
2023/06/26 14:47:05;;;;;;;19.77;4.60;;;35.10;66.60;;;;;;5092033;28;20054;-61
2023/06/26 14:50:09;;;;;;;27.13;4.63;;;35.10;67.10;;;;;;5091612;28;20071;-62
2023/06/26 14:53:14;;;;;;;7.45;3.72;;;34.90;67.20;;;;;;5091753;28;20054;-61
2023/06/26 14:56:17;;;;;;;32.42;5.35;;;34.50;67.60;;;;;;5091535;28;20494;-62
2023/06/26 14:59:21;;;;;;;9.55;3.90;;;33.90;68.50;;;;;;5091739;28;20059;-61
2023/06/26 15:02:27;;;;;;;17.80;4.50;;;33.40;69.10;;;;;;5091464;28;20039;-63
2023/06/26 15:05:30;;;;;;;6.60;3.50;;;32.90;70.10;;;;;;5091289;28;20055;-63
2023/06/26 15:08:34;;;;;;;12.90;4.60;;;32.70;70.70;;;;;;5091691;28;20042;-63
2023/06/26 15:11:39;;;;;;;17.63;4.38;;;32.50;71.00;;;;;;5091289;28;20047;-61
2023/06/26 15:14:43;;;;;;;11.35;4.60;;;32.40;71.60;;;;;;5089380;28;20051;-61
2023/06/26 15:17:46;;;;;;;18.00;4.20;;;32.20;72.40;;;;;;5090436;28;20039;-62
2023/06/26 15:20:51;;;;;;;12.45;4.28;;;32.10;72.60;;;;;;5090656;28;20046;-63
2023/06/26 15:23:55;;;;;;;11.43;4.65;;;31.90;72.80;;;;;;5090367;28;20502;-62
2023/06/26 15:26:59;;;;;;;7.80;3.72;;;31.80;73.50;;;;;;5090571;28;20047;-62
2023/06/26 15:30:05;;;;;;;10.57;3.55;;;31.80;73.80;;;;;;5089477;28;20111;-62
2023/06/26 15:33:09;;;;;;;13.35;3.80;;;31.70;74.60;;;;;;5089837;28;20075;-63
2023/06/26 15:36:13;;;;;;;13.25;3.95;;;31.60;75.00;;;;;;5090773;28;20043;-63
2023/06/26 15:39:17;;;;;;;7.70;3.75;;;31.60;75.30;;;;;;5090522;28;20127;-62
2023/06/26 15:42:21;;;;;;;6.90;3.45;;;31.60;75.40;;;;;;5091127;28;20043;-62
2023/06/26 15:45:25;;;;;;;7.60;4.10;;;31.50;75.80;;;;;;5091078;28;20391;-62
2023/06/26 15:48:29;;;;;;;8.13;3.85;;;31.40;76.00;;;;;;5090907;28;20043;-63
2023/06/26 15:51:36;;;;;;;15.50;5.90;;;31.40;77.10;;;;;;5090763;28;20047;-63
2023/06/26 15:54:40;;;;;;;12.77;4.40;;;31.20;77.40;;;;;;5090349;28;20059;-64
2023/06/26 15:57:44;;;;;;;8.65;4.13;;;31.20;77.90;;;;;;5090760;28;20043;-63